createdAt,value
2022-11-17T00:02:00.462Z,6.73
2022-11-17T00:04:30.525Z,6.74
2022-11-17T00:06:58.288Z,6.75
2022-11-17T00:09:25.689Z,6.74
2022-11-17T00:12:11.263Z,6.71
2022-11-17T00:14:40.476Z,6.66
2022-11-17T00:17:12.790Z,6.63
2022-11-17T00:19:58.591Z,6.63
2022-11-17T00:22:26.171Z,6.62
2022-11-17T00:24:53.272Z,6.55
2022-11-17T00:27:20.335Z,6.50
2022-11-17T00:29:47.418Z,6.52
2022-11-17T00:32:34.984Z,6.51
2022-11-17T00:35:02.316Z,6.52
2022-11-17T00:37:30.606Z,6.53
2022-11-17T00:40:00.742Z,6.51
2022-11-17T00:42:28.413Z,6.53
2022-11-17T00:44:55.463Z,6.54
2022-11-17T00:47:22.566Z,6.55
2022-11-17T00:49:49.646Z,6.55
2022-11-17T00:52:16.659Z,6.57
2022-11-17T00:54:43.728Z,6.58
2022-11-17T00:57:10.804Z,6.58
2022-11-17T00:59:37.843Z,6.59
2022-11-17T01:02:05.158Z,6.59
2022-11-17T01:04:32.684Z,6.60
2022-11-17T01:06:59.926Z,6.61
2022-11-17T01:09:27.862Z,6.61
2022-11-17T01:11:55.160Z,6.57
2022-11-17T01:14:24.623Z,6.55
2022-11-17T01:16:52.551Z,6.50
2022-11-17T01:19:20.141Z,6.51
2022-11-17T01:21:47.346Z,6.50
2022-11-17T01:24:16.259Z,6.47
2022-11-17T01:26:44.906Z,6.46
2022-11-17T01:29:14.545Z,6.44
2022-11-17T01:31:45.182Z,6.44
2022-11-17T01:34:12.749Z,6.42
2022-11-17T01:37:00.744Z,6.36
2022-11-17T01:39:29.649Z,6.28
2022-11-17T01:41:57.403Z,6.26
2022-11-17T01:44:51.859Z,6.26
2022-11-17T01:47:23.365Z,6.21
2022-11-17T01:49:54.540Z,6.18
2022-11-17T01:52:22.852Z,6.19
2022-11-17T01:54:52.327Z,6.18
2022-11-17T01:57:24.342Z,6.21
2022-11-17T02:00:05.785Z,6.20
2022-11-17T02:02:34.544Z,6.20
2022-11-17T02:05:10.761Z,6.18
2022-11-17T02:07:42.323Z,6.20
2022-11-17T02:10:09.481Z,6.20
2022-11-17T02:12:36.989Z,6.22
2022-11-17T02:15:05.054Z,6.17
2022-11-17T02:17:37.527Z,6.14
2022-11-17T02:20:42.754Z,6.15
2022-11-17T02:23:27.026Z,6.16
2022-11-17T02:26:15.232Z,6.13
2022-11-17T02:28:53.967Z,6.14
2022-11-17T02:31:35.553Z,6.21
2022-11-17T02:34:33.259Z,6.21
2022-11-17T02:37:10.115Z,6.24
2022-11-17T02:40:01.422Z,6.27
2022-11-17T02:43:00.662Z,6.29
2022-11-17T02:45:36.134Z,6.32
2022-11-17T02:48:07.610Z,6.34
2022-11-17T02:50:34.978Z,6.33
2022-11-17T02:53:03.164Z,6.31
2022-11-17T02:55:34.598Z,6.27
2022-11-17T02:58:01.931Z,6.28
2022-11-17T03:00:31.008Z,6.27
2022-11-17T03:03:34.057Z,6.28
2022-11-17T03:06:25.184Z,6.28
2022-11-17T03:08:59.656Z,6.27
2022-11-17T03:11:35.781Z,6.26
2022-11-17T03:14:09.236Z,6.25
2022-11-17T03:16:43.813Z,6.26
2022-11-17T03:19:21.834Z,6.26
2022-11-17T03:22:10.135Z,6.24
2022-11-17T03:24:40.878Z,6.23
2022-11-17T03:27:15.544Z,6.22
2022-11-17T03:29:47.403Z,6.22
2022-11-17T03:32:15.660Z,6.23
2022-11-17T03:34:46.174Z,6.24
2022-11-17T03:37:14.085Z,6.27
2022-11-17T03:39:43.829Z,6.28
2022-11-17T03:42:32.359Z,6.32
2022-11-17T03:45:06.987Z,6.30
2022-11-17T03:47:35.130Z,6.28
2022-11-17T03:50:22.327Z,6.23
2022-11-17T03:52:49.527Z,6.24
2022-11-17T03:55:16.702Z,6.23
2022-11-17T03:57:52.511Z,6.21
2022-11-17T04:00:20.036Z,6.21
2022-11-17T04:02:48.834Z,6.17
2022-11-17T04:05:17.942Z,6.05
2022-11-17T04:07:46.836Z,6.05
2022-11-17T04:10:23.523Z,6.07
2022-11-17T04:13:08.897Z,6.11
2022-11-17T04:15:54.589Z,6.10
2022-11-17T04:18:22.563Z,6.09
2022-11-17T04:20:51.089Z,6.09
2022-11-17T04:23:18.497Z,6.08
2022-11-17T04:26:06.800Z,6.07
2022-11-17T04:28:38.811Z,6.04
2022-11-17T04:31:16.500Z,6.01
2022-11-17T04:33:48.135Z,5.98
2022-11-17T04:36:17.988Z,5.94
2022-11-17T04:38:49.816Z,5.96
2022-11-17T04:41:36.772Z,5.95
2022-11-17T04:44:05.554Z,5.93
2022-11-17T04:46:34.283Z,5.95
2022-11-17T04:49:01.723Z,5.93
2022-11-17T04:51:29.780Z,5.93
2022-11-17T04:53:57.562Z,5.92
2022-11-17T04:56:25.359Z,5.93
2022-11-17T04:58:53.131Z,5.95
2022-11-17T05:01:20.972Z,5.93
2022-11-17T05:03:49.247Z,5.91
2022-11-17T05:06:27.719Z,5.90
2022-11-17T05:08:56.024Z,5.90
2022-11-17T05:11:43.558Z,5.88
2022-11-17T05:14:11.383Z,5.85
2022-11-17T05:16:57.221Z,5.88
2022-11-17T05:19:26.147Z,5.85
2022-11-17T05:21:53.820Z,5.82
2022-11-17T05:24:20.946Z,5.80
2022-11-17T05:26:49.198Z,5.70
2022-11-17T05:29:18.631Z,5.59
2022-11-17T05:31:46.448Z,5.55
2022-11-17T05:34:15.195Z,5.51
2022-11-17T05:36:42.341Z,5.44
2022-11-17T05:39:09.990Z,5.36
2022-11-17T05:41:39.778Z,5.23
2022-11-17T05:44:06.859Z,5.20
2022-11-17T05:46:33.917Z,5.23
2022-11-17T05:49:01.007Z,5.21
2022-11-17T05:51:28.069Z,5.20
2022-11-17T05:53:55.169Z,5.18
2022-11-17T05:56:46.158Z,5.17
2022-11-17T05:59:16.117Z,5.15
2022-11-17T06:01:51.414Z,5.14
2022-11-17T06:04:19.550Z,5.12
2022-11-17T06:06:47.653Z,5.10
2022-11-17T06:09:15.297Z,5.09
2022-11-17T06:11:42.365Z,5.03
2022-11-17T06:14:09.436Z,4.99
2022-11-17T06:16:41.163Z,4.98
2022-11-17T06:19:14.175Z,5.02
2022-11-17T06:22:10.125Z,5.07
2022-11-17T06:24:28.506Z,5.10
2022-11-17T06:26:55.647Z,5.10
2022-11-17T06:29:22.754Z,5.05
2022-11-17T06:31:49.844Z,5.04
2022-11-17T06:34:17.005Z,4.99
2022-11-17T06:36:44.054Z,4.99
2022-11-17T06:39:11.272Z,5.02
2022-11-17T06:41:40.040Z,5.04
2022-11-17T06:44:07.209Z,4.98
2022-11-17T06:46:38.063Z,5.00
2022-11-17T06:49:07.024Z,5.03
2022-11-17T06:51:34.987Z,5.02
2022-11-17T06:54:03.855Z,4.97
2022-11-17T06:56:30.940Z,5.00
2022-11-17T06:58:59.026Z,4.98
2022-11-17T07:01:26.198Z,5.05
2022-11-17T07:03:53.359Z,5.07
2022-11-17T07:06:20.400Z,5.14
2022-11-17T07:08:47.537Z,5.19
2022-11-17T07:11:16.541Z,5.22
2022-11-17T07:13:44.020Z,5.22
2022-11-17T07:16:16.342Z,5.27
2022-11-17T07:18:46.234Z,5.30
2022-11-17T07:21:14.492Z,5.27
2022-11-17T07:23:42.781Z,5.27
2022-11-17T07:26:09.826Z,5.32
2022-11-17T07:28:37.637Z,5.28
2022-11-17T07:31:06.717Z,5.27
2022-11-17T07:33:34.344Z,5.29
2022-11-17T07:36:06.608Z,5.31
2022-11-17T07:38:35.214Z,5.36
2022-11-17T07:41:03.695Z,5.38
2022-11-17T07:43:30.910Z,5.36
2022-11-17T07:45:58.051Z,5.37
2022-11-17T07:48:25.123Z,5.40
2022-11-17T07:50:52.240Z,5.45
2022-11-17T07:53:19.290Z,5.48
2022-11-17T07:55:46.396Z,5.51
2022-11-17T07:58:13.469Z,5.53
2022-11-17T08:00:40.612Z,5.56
2022-11-17T08:03:07.917Z,5.57
2022-11-17T08:05:41.542Z,5.57
2022-11-17T08:08:13.109Z,5.59
2022-11-17T08:10:40.243Z,5.60
2022-11-17T08:13:07.560Z,5.65
2022-11-17T08:15:36.162Z,5.65
2022-11-17T08:18:04.475Z,5.61
2022-11-17T08:20:31.758Z,5.65
2022-11-17T08:22:58.814Z,5.62
2022-11-17T08:25:27.022Z,5.64
2022-11-17T08:27:55.357Z,5.63
2022-11-17T08:30:23.158Z,5.67
2022-11-17T08:32:52.544Z,5.68
2022-11-17T08:35:21.417Z,5.67
2022-11-17T08:37:48.438Z,5.68
2022-11-17T08:40:17.960Z,5.68
2022-11-17T08:42:45.303Z,5.67
2022-11-17T08:45:13.513Z,5.59
2022-11-17T08:47:40.950Z,5.56
2022-11-17T08:50:09.038Z,5.56
2022-11-17T08:52:36.162Z,5.56
2022-11-17T08:55:05.602Z,5.55
2022-11-17T08:57:33.007Z,5.56
2022-11-17T09:00:01.103Z,5.54
2022-11-17T09:02:28.586Z,5.49
2022-11-17T09:04:55.919Z,5.50
2022-11-17T09:07:23.111Z,5.53
2022-11-17T09:09:50.235Z,5.55
2022-11-17T09:12:18.975Z,5.59
2022-11-17T09:14:46.061Z,5.59
2022-11-17T09:17:13.165Z,5.59
2022-11-17T09:19:40.264Z,5.58
2022-11-17T09:22:07.327Z,5.61
2022-11-17T09:24:34.580Z,5.62
2022-11-17T09:27:03.119Z,5.57
2022-11-17T09:29:30.869Z,5.57
2022-11-17T09:31:58.106Z,5.57
2022-11-17T09:34:25.697Z,5.58
2022-11-17T09:36:52.933Z,5.52
2022-11-17T09:39:20.047Z,5.53
2022-11-17T09:41:49.928Z,5.57
2022-11-17T09:44:42.308Z,5.58
2022-11-17T09:47:41.472Z,5.61
2022-11-17T09:50:27.473Z,5.63
2022-11-17T09:52:54.444Z,5.67
2022-11-17T09:55:40.426Z,5.69
2022-11-17T09:58:13.219Z,5.69
2022-11-17T10:00:42.714Z,5.72
2022-11-17T10:03:26.498Z,5.66
2022-11-17T10:05:54.180Z,5.61
2022-11-17T10:09:03.600Z,5.62
2022-11-17T10:11:33.279Z,5.56
2022-11-17T10:14:10.663Z,5.54
2022-11-17T10:16:38.759Z,5.50
2022-11-17T10:19:16.600Z,5.48
2022-11-17T10:21:44.979Z,5.42
2022-11-17T10:24:34.621Z,5.37
2022-11-17T10:27:03.745Z,5.33
2022-11-17T10:29:31.240Z,5.29
2022-11-17T10:31:59.680Z,5.27
2022-11-17T10:34:41.067Z,5.28
2022-11-17T10:37:15.233Z,5.30
2022-11-17T10:39:43.050Z,5.26
2022-11-17T10:42:28.627Z,5.32
2022-11-17T10:44:57.623Z,5.37
2022-11-17T10:47:35.111Z,5.37
2022-11-17T10:50:11.366Z,5.37
2022-11-17T10:52:38.795Z,5.38
2022-11-17T10:55:18.646Z,5.42
2022-11-17T10:57:48.992Z,5.44
2022-11-17T11:00:27.546Z,5.45
2022-11-17T11:03:18.182Z,5.46
2022-11-17T11:06:20.406Z,5.48
2022-11-17T11:09:01.075Z,5.42
2022-11-17T11:11:37.294Z,5.46
2022-11-17T11:14:15.698Z,5.46
2022-11-17T11:16:48.217Z,5.44
2022-11-17T11:19:17.431Z,5.48
2022-11-17T11:22:03.728Z,5.56
2022-11-17T11:24:51.610Z,5.57
2022-11-17T11:27:46.290Z,5.58
2022-11-17T11:30:16.100Z,5.59
2022-11-17T11:33:23.730Z,5.57
2022-11-17T11:36:02.867Z,5.56
2022-11-17T11:38:50.434Z,5.59
2022-11-17T11:41:38.380Z,5.59
2022-11-17T11:44:05.321Z,5.57
2022-11-17T11:47:03.756Z,5.56
2022-11-17T11:49:45.748Z,5.57
2022-11-17T11:52:19.766Z,5.58
2022-11-17T11:54:52.470Z,5.63
2022-11-17T11:57:26.034Z,5.70
2022-11-17T12:00:03.740Z,5.73
2022-11-17T12:02:44.276Z,5.78
2022-11-17T12:05:29.520Z,5.93
2022-11-17T12:08:13.344Z,6.10
2022-11-17T12:11:00.873Z,6.23
2022-11-17T12:13:28.335Z,6.21
2022-11-17T12:16:17.841Z,6.27
2022-11-17T12:18:44.940Z,6.25
2022-11-17T12:21:13.221Z,6.28
2022-11-17T12:23:46.582Z,6.27
2022-11-17T12:26:31.109Z,6.24
2022-11-17T12:29:31.731Z,6.22
2022-11-17T12:32:00.172Z,6.20
2022-11-17T12:34:35.785Z,6.25
2022-11-17T12:37:14.771Z,6.28
2022-11-17T12:40:00.114Z,6.30
2022-11-17T12:42:31.175Z,6.33
2022-11-17T12:44:58.241Z,6.34
2022-11-17T12:47:30.834Z,6.35
2022-11-17T12:50:07.168Z,6.35
2022-11-17T12:52:43.482Z,6.35
2022-11-17T12:55:22.650Z,6.39
2022-11-17T12:57:56.093Z,6.41
2022-11-17T13:00:24.104Z,6.45
2022-11-17T13:03:16.581Z,6.49
2022-11-17T13:05:43.726Z,6.49
2022-11-17T13:08:13.695Z,6.50
2022-11-17T13:10:41.610Z,6.52
2022-11-17T13:13:10.604Z,6.51
2022-11-17T13:15:38.003Z,6.52
2022-11-17T13:18:34.622Z,6.52
2022-11-17T13:21:02.369Z,6.54
2022-11-17T13:23:31.981Z,6.55
2022-11-17T13:26:21.267Z,6.49
2022-11-17T13:28:49.722Z,6.47
2022-11-17T13:31:18.774Z,6.47
2022-11-17T13:34:21.230Z,6.44
2022-11-17T13:36:59.432Z,6.46
2022-11-17T13:39:28.070Z,6.44
2022-11-17T13:41:56.584Z,6.47
2022-11-17T13:44:28.293Z,6.52
2022-11-17T13:46:56.240Z,6.48
2022-11-17T13:49:38.672Z,6.49
2022-11-17T13:52:14.286Z,6.48
2022-11-17T13:54:43.933Z,6.49
2022-11-17T13:57:25.481Z,6.55
2022-11-17T13:59:53.232Z,6.56
2022-11-17T14:02:20.177Z,6.58
2022-11-17T14:05:19.089Z,6.58
2022-11-17T14:07:47.006Z,6.60
2022-11-17T14:10:15.216Z,6.56
2022-11-17T14:12:42.497Z,6.50
2022-11-17T14:15:23.525Z,6.47
2022-11-17T14:17:51.332Z,6.43
2022-11-17T14:20:24.669Z,6.41
2022-11-17T14:23:16.384Z,6.34
2022-11-17T14:25:45.017Z,6.32
2022-11-17T14:28:14.225Z,6.28
2022-11-17T14:30:41.928Z,6.28
2022-11-17T14:33:13.364Z,6.25
2022-11-17T14:35:41.498Z,6.18
2022-11-17T14:38:16.530Z,6.12
2022-11-17T14:40:43.691Z,6.12
2022-11-17T14:43:10.936Z,6.06
2022-11-17T14:45:38.094Z,6.03
2022-11-17T14:48:07.944Z,6.03
2022-11-17T14:50:35.036Z,6.02
2022-11-17T14:53:02.136Z,5.91
2022-11-17T14:55:29.261Z,5.90
2022-11-17T14:57:56.484Z,5.85
2022-11-17T15:00:23.599Z,5.81
2022-11-17T15:02:51.090Z,5.75
2022-11-17T15:05:18.130Z,5.73
2022-11-17T15:07:45.257Z,5.70
2022-11-17T15:10:12.392Z,5.64
2022-11-17T15:12:39.418Z,5.67
2022-11-17T15:15:07.042Z,5.63
2022-11-17T15:17:34.064Z,5.66
2022-11-17T15:20:01.208Z,5.71
2022-11-17T15:22:28.485Z,5.70
2022-11-17T15:24:55.494Z,5.73
2022-11-17T15:27:22.612Z,5.78
2022-11-17T15:29:49.937Z,5.79
2022-11-17T15:32:17.026Z,5.79
2022-11-17T15:34:44.120Z,5.83
2022-11-17T15:37:11.195Z,5.85
2022-11-17T15:39:38.248Z,5.83
2022-11-17T15:42:07.526Z,5.81
2022-11-17T15:44:34.584Z,5.80
2022-11-17T15:47:01.647Z,5.82
2022-11-17T15:49:28.720Z,5.82
2022-11-17T15:51:55.739Z,5.81
2022-11-17T15:54:23.442Z,5.79
2022-11-17T15:56:51.691Z,5.80
2022-11-17T15:59:19.367Z,5.82
2022-11-17T16:01:47.021Z,5.81
2022-11-17T16:04:18.012Z,5.80
2022-11-17T16:06:46.479Z,5.85
2022-11-17T16:09:14.412Z,5.87
2022-11-17T16:11:41.903Z,5.87
2022-11-17T16:14:09.020Z,5.88
2022-11-17T16:16:38.126Z,5.90
2022-11-17T16:19:06.062Z,5.92
2022-11-17T16:21:33.332Z,5.92
2022-11-17T16:24:03.306Z,5.92
2022-11-17T16:26:30.688Z,5.92
2022-11-17T16:28:59.036Z,5.96
2022-11-17T16:31:28.892Z,5.95
2022-11-17T16:34:03.600Z,5.93
2022-11-17T16:36:36.807Z,5.93
2022-11-17T16:39:06.309Z,5.90
2022-11-17T16:41:35.909Z,5.93
2022-11-17T16:44:07.350Z,5.97
2022-11-17T16:46:34.724Z,5.98
2022-11-17T16:49:04.337Z,5.98
2022-11-17T16:51:31.636Z,5.98
2022-11-17T16:54:00.593Z,6.00
2022-11-17T16:56:28.169Z,6.01
2022-11-17T16:58:55.810Z,6.01
2022-11-17T17:01:25.161Z,6.04
2022-11-17T17:03:56.926Z,6.07
2022-11-17T17:06:24.379Z,6.16
2022-11-17T17:08:58.777Z,6.19
2022-11-17T17:11:27.356Z,6.20
2022-11-17T17:13:56.386Z,6.20
2022-11-17T17:16:23.553Z,6.20
2022-11-17T17:18:59.406Z,6.21
2022-11-17T17:21:27.357Z,6.26
2022-11-17T17:23:54.775Z,6.30
2022-11-17T17:26:22.511Z,6.36
2022-11-17T17:28:51.239Z,6.41
2022-11-17T17:31:21.883Z,6.45
2022-11-17T17:33:50.470Z,6.52
2022-11-17T17:36:20.012Z,6.57
2022-11-17T17:38:53.359Z,6.61
2022-11-17T17:41:27.107Z,6.61
2022-11-17T17:43:56.817Z,6.60
2022-11-17T17:46:24.435Z,6.56
2022-11-17T17:48:51.591Z,6.47
2022-11-17T17:51:20.602Z,6.49
2022-11-17T17:53:50.292Z,6.54
2022-11-17T17:56:19.246Z,6.59
2022-11-17T17:58:48.697Z,6.55
2022-11-17T18:01:21.517Z,6.58
2022-11-17T18:03:49.792Z,6.52
2022-11-17T18:06:21.315Z,6.47
2022-11-17T18:08:49.060Z,6.44
2022-11-17T18:11:20.545Z,6.44
2022-11-17T18:13:49.355Z,6.43
2022-11-17T18:16:21.619Z,6.39
2022-11-17T18:18:49.694Z,6.36
2022-11-17T18:21:18.704Z,6.32
2022-11-17T18:23:46.086Z,6.31
2022-11-17T18:26:22.830Z,6.32
2022-11-17T18:28:54.914Z,6.31
2022-11-17T18:31:24.052Z,6.35
2022-11-17T18:33:52.732Z,6.38
2022-11-17T18:36:21.095Z,6.39
2022-11-17T18:38:48.276Z,6.42
2022-11-17T18:41:16.679Z,6.35
2022-11-17T18:43:44.111Z,6.33
2022-11-17T18:46:16.320Z,6.28
2022-11-17T18:48:45.099Z,6.25
2022-11-17T18:51:21.847Z,6.26
2022-11-17T18:53:50.218Z,6.26
2022-11-17T18:56:20.229Z,6.17
2022-11-17T18:58:47.469Z,6.15
2022-11-17T19:01:22.341Z,6.20
2022-11-17T19:03:54.281Z,6.23
2022-11-17T19:06:24.508Z,6.21
2022-11-17T19:08:52.411Z,6.14
2022-11-17T19:11:21.538Z,6.11
2022-11-17T19:13:48.773Z,6.01
2022-11-17T19:16:20.734Z,5.99
2022-11-17T19:18:49.110Z,5.96
2022-11-17T19:21:26.829Z,5.89
2022-11-17T19:23:55.319Z,5.88
2022-11-17T19:26:24.509Z,5.85
2022-11-17T19:28:55.712Z,5.81
2022-11-17T19:31:23.035Z,5.75
2022-11-17T19:33:50.625Z,5.71
2022-11-17T19:36:22.736Z,5.69
2022-11-17T19:38:53.994Z,5.69
2022-11-17T19:41:26.079Z,5.68
2022-11-17T19:43:57.277Z,5.71
2022-11-17T19:46:26.301Z,5.67
2022-11-17T19:48:53.451Z,5.69
2022-11-17T19:51:25.795Z,5.73
2022-11-17T19:53:54.571Z,5.72
2022-11-17T19:56:22.528Z,5.73
2022-11-17T19:58:50.089Z,5.75
2022-11-17T20:01:19.555Z,5.78
2022-11-17T20:03:47.605Z,5.81
2022-11-17T20:06:17.334Z,5.83
2022-11-17T20:08:45.251Z,5.86
2022-11-17T20:11:16.734Z,5.94
2022-11-17T20:13:44.409Z,6.01
2022-11-17T20:16:24.356Z,6.07
2022-11-17T20:18:53.288Z,6.04
2022-11-17T20:21:20.349Z,6.04
2022-11-17T20:23:47.591Z,6.03
2022-11-17T20:26:22.939Z,6.02
2022-11-17T20:28:50.198Z,6.03
2022-11-17T20:31:24.357Z,6.04
2022-11-17T20:33:53.608Z,6.07
2022-11-17T20:36:21.429Z,6.09
2022-11-17T20:38:52.985Z,6.06
2022-11-17T20:41:21.077Z,6.07
2022-11-17T20:43:49.537Z,6.03
2022-11-17T20:46:16.859Z,6.02
2022-11-17T20:48:44.239Z,5.94
2022-11-17T20:51:13.545Z,5.93
2022-11-17T20:53:41.689Z,5.93
2022-11-17T20:56:11.130Z,5.91
2022-11-17T20:58:38.588Z,5.93
2022-11-17T21:01:15.683Z,5.90
2022-11-17T21:03:43.169Z,5.91
2022-11-17T21:06:10.227Z,5.91
2022-11-17T21:08:39.539Z,5.87
2022-11-17T21:11:11.449Z,5.89
2022-11-17T21:13:38.968Z,5.85
2022-11-17T21:16:11.763Z,5.80
2022-11-17T21:18:44.139Z,5.83
2022-11-17T21:21:11.496Z,5.82
2022-11-17T21:23:39.675Z,5.91
2022-11-17T21:26:11.472Z,5.94
2022-11-17T21:28:39.084Z,5.95
2022-11-17T21:31:08.081Z,6.01
2022-11-17T21:33:35.894Z,6.05
2022-11-17T21:36:08.476Z,6.04
2022-11-17T21:38:35.687Z,6.01
2022-11-17T21:41:04.205Z,6.03
2022-11-17T21:43:31.436Z,6.00
2022-11-17T21:46:06.684Z,5.99
2022-11-17T21:48:34.678Z,5.95
2022-11-17T21:51:01.826Z,5.91
2022-11-17T21:53:32.231Z,5.91
2022-11-17T21:56:03.617Z,5.92
2022-11-17T21:58:30.778Z,5.91
2022-11-17T22:00:58.247Z,5.91
2022-11-17T22:03:25.331Z,5.88
2022-11-17T22:05:54.016Z,5.88
2022-11-17T22:08:22.866Z,5.91
2022-11-17T22:10:50.143Z,5.88
2022-11-17T22:13:17.154Z,5.91
2022-11-17T22:15:44.198Z,5.94
2022-11-17T22:18:11.445Z,5.99
2022-11-17T22:20:38.501Z,6.01
2022-11-17T22:23:05.544Z,6.04
2022-11-17T22:25:45.161Z,6.09
2022-11-17T22:28:14.624Z,6.07
2022-11-17T22:30:41.742Z,6.07
2022-11-17T22:33:08.782Z,6.09
2022-11-17T22:35:35.796Z,6.09
2022-11-17T22:38:02.849Z,6.06
2022-11-17T22:40:30.256Z,6.05
2022-11-17T22:43:00.000Z,6.05
2022-11-17T22:45:30.706Z,6.04
2022-11-17T22:47:57.730Z,6.03
2022-11-17T22:50:24.808Z,6.02
2022-11-17T22:52:51.926Z,6.04
2022-11-17T22:55:18.976Z,6.03
2022-11-17T22:57:46.047Z,6.07
2022-11-17T23:00:13.639Z,6.08
2022-11-17T23:02:40.780Z,6.10
2022-11-17T23:05:07.889Z,6.09
2022-11-17T23:07:35.069Z,6.12
2022-11-17T23:10:02.203Z,6.08
2022-11-17T23:12:29.325Z,6.14
2022-11-17T23:14:56.410Z,6.19
2022-11-17T23:17:23.726Z,6.19
2022-11-17T23:19:50.814Z,6.17
2022-11-17T23:22:17.872Z,6.12
2022-11-17T23:24:44.870Z,6.11
2022-11-17T23:27:12.376Z,6.09
2022-11-17T23:29:39.390Z,6.04
2022-11-17T23:32:06.445Z,6.05
2022-11-17T23:34:33.476Z,6.04
2022-11-17T23:37:03.680Z,6.04
2022-11-17T23:39:31.205Z,6.04
2022-11-17T23:41:58.293Z,6.08
2022-11-17T23:44:25.327Z,6.12
2022-11-17T23:46:52.362Z,6.13
2022-11-17T23:49:19.787Z,6.13
2022-11-17T23:51:47.102Z,6.14
2022-11-17T23:54:14.293Z,6.11
2022-11-17T23:56:41.405Z,6.14
2022-11-17T23:59:08.680Z,6.07
